« Back
NWS Peachtree City, Ga » Text Product » CSG Terminal Aerodrome Forecast


Printer-friendly Version
Current Version              Previous Versions:   1  2  3  4  5  6  7  8  9  

Terminal Aerodrome Forecast

551
FTUS42 KFFC 191700
TAFCSG
TAF
KCSG 191721Z 1918/2018 VRB02KT P6SM FEW250
     FM201700 20003KT P6SM FEW040 FEW250=



USA.gov is the U.S. government's official web portal to all federal, state and local government web resources and services.